Aberdeen, Hong Kong

8:24 AM HKT on November 20, 2017 (GMT +0800)
Ap Lei Chau South Horizons Phase 1 | | Change Station

Elev 358 ft 22.24 °N, 114.15 °E | Updated 8 seconds ago

Mostly Cloudy
Mostly Cloudy
68.4 °F
Feels Like 68.4 °F
N
0.0
Wind Variable Wind from SSW
Gusts 0.0 mph

Today
High -- | Low -- °F
--% Chance of Precip.
Yesterday
High -- | Low -- °F
Precip. -- in
Pressure 30.09 in
Visibility 6.2 miles
Clouds Few 1500 ft
Scattered Clouds 2500 ft
Dew Point 62 °F
Humidity 80%
Rainfall 0.00 in
Snow Depth Not available.
6:38 AM 5:39 PM
New Moon, 2% visible
METAR VHHH 200000Z 05011KT 9999 FEW015 SCT025 19/14 Q1019 NOSIG
Pressure 30.09 in
Visibility 6.2 miles
Clouds Few 1500 ft
Scattered Clouds 2500 ft
Dew Point 62 °F
Humidity 80%
Rainfall 0.00 in
Snow Depth Not available.
6:38 AM 5:39 PM
New Moon, 2% visible
METAR VHHH 200000Z 05011KT 9999 FEW015 SCT025 19/14 Q1019 NOSIG

Get Severe Weather Alerts

Thanks for signing up!

Be on the lookout for a verification email in your inbox.

You'll start receiving the daily forecast at 6 AM.

×

10-Day Weather Forecast

No radar image for this location.
×

Almanac

Astronomy

Nov. 20, 2017 Rise Set
Actual Time
Civil Twilight
Nautical Twilight
Astronomical Twilight
Moon
Length of Visible Light
Length of Day
Tomorrow will be .
, % of the Moon is Illuminated

Today's Extremes

Country Highs Country Lows

Community

WunderPhotos

Category 6

Welcome to Category 6. This is the collective home for Weather Underground's featured writeups by Dr. Jeff Masters (right), Bob Henson (left), Chris Burt, and other regular contributors.

Nearby

Air Quality

  Air Quality AQ Index Pollutant
Not available.

Snow Depth

Station Depth Elevation

Earthquake Activity

City Distance Mag. Time & Date
Minimum magnitude displayed is 2.5.

Coastal Water Temperatures

Place Temperature

Stations

Nearby Weather Stations

Station Location Temp. Windchill Dew Point Humidity Wind Precip. Elev Updated Type